createdAt,value
2023-03-05T00:01:55.635Z,23.98
2023-03-05T00:04:00.591Z,22.88
2023-03-05T00:06:05.651Z,22.70
2023-03-05T00:08:10.478Z,23.00
2023-03-05T00:10:17.883Z,22.73
2023-03-05T00:12:22.642Z,22.92
2023-03-05T00:14:27.643Z,24.23
2023-03-05T00:16:33.043Z,24.95
2023-03-05T00:18:41.186Z,24.35
2023-03-05T00:20:46.208Z,24.33
2023-03-05T00:22:50.930Z,24.55
2023-03-05T00:24:55.962Z,24.88
2023-03-05T00:27:00.995Z,23.58
2023-03-05T00:29:06.527Z,21.58
2023-03-05T00:31:11.371Z,23.52
2023-03-05T00:33:16.721Z,24.60
2023-03-05T00:37:28.743Z,23.92
2023-03-05T00:39:33.679Z,24.58
2023-03-05T00:41:38.496Z,24.42
2023-03-05T00:43:43.382Z,24.73
2023-03-05T00:45:48.167Z,25.17
2023-03-05T00:47:52.996Z,24.45
2023-03-05T00:49:57.797Z,24.05
2023-03-05T00:52:05.186Z,27.00
2023-03-05T00:54:10.221Z,23.63
2023-03-05T00:56:15.152Z,24.27
2023-03-05T00:58:20.202Z,25.23
2023-03-05T01:00:25.102Z,25.10
2023-03-05T01:02:30.026Z,27.27
2023-03-05T01:04:36.725Z,24.65
2023-03-05T01:06:46.274Z,25.08
2023-03-05T01:08:54.569Z,25.17
2023-03-05T01:10:59.668Z,24.50
2023-03-05T01:13:04.734Z,25.27
2023-03-05T01:17:14.724Z,24.27
2023-03-05T01:19:19.746Z,25.08
2023-03-05T01:21:24.784Z,23.88
2023-03-05T01:23:29.996Z,25.60
2023-03-05T01:25:37.421Z,26.02
2023-03-05T01:27:42.248Z,25.92
2023-03-05T01:29:47.155Z,26.85
2023-03-05T01:31:52.028Z,25.05
2023-03-05T01:33:57.654Z,25.40
2023-03-05T01:36:02.470Z,24.55
2023-03-05T01:38:07.306Z,26.15
2023-03-05T01:40:15.049Z,24.10
2023-03-05T01:42:22.521Z,24.80
2023-03-05T01:44:29.842Z,27.02
2023-03-05T01:46:39.801Z,25.10
2023-03-05T01:48:44.569Z,25.95
2023-03-05T01:50:49.866Z,24.50
2023-03-05T01:53:00.396Z,23.98
2023-03-05T01:55:10.906Z,25.58
2023-03-05T01:57:19.315Z,24.73
2023-03-05T01:59:29.057Z,24.38
2023-03-05T02:01:36.686Z,23.17
2023-03-05T02:03:42.896Z,23.45
2023-03-05T02:05:47.735Z,23.92
2023-03-05T02:07:54.547Z,24.75
2023-03-05T02:09:59.374Z,23.02
2023-03-05T02:12:04.177Z,25.30
2023-03-05T02:14:10.571Z,25.30
2023-03-05T02:16:18.413Z,24.15
2023-03-05T02:18:24.571Z,24.98
2023-03-05T02:20:34.802Z,24.70
2023-03-05T02:22:42.172Z,23.17
2023-03-05T02:24:47.263Z,23.20
2023-03-05T02:26:52.090Z,23.08
2023-03-05T02:29:00.982Z,23.42
2023-03-05T02:31:12.602Z,22.88
2023-03-05T02:33:18.346Z,21.90
2023-03-05T02:35:23.454Z,21.92
2023-03-05T02:37:28.298Z,21.48
2023-03-05T02:39:36.080Z,21.67
2023-03-05T02:41:41.077Z,21.48
2023-03-05T02:43:46.062Z,20.75
2023-03-05T02:45:50.897Z,19.60
2023-03-05T02:47:55.708Z,20.40
2023-03-05T02:50:00.748Z,18.38
2023-03-05T02:52:06.784Z,22.00
2023-03-05T02:54:11.607Z,20.95
2023-03-05T02:56:19.078Z,21.02
2023-03-05T02:58:23.945Z,20.38
2023-03-05T03:00:30.134Z,19.40
2023-03-05T03:04:39.612Z,19.88
2023-03-05T03:06:44.417Z,20.30
2023-03-05T03:08:49.290Z,18.15
2023-03-05T03:10:56.489Z,18.63
2023-03-05T03:13:04.028Z,19.25
2023-03-05T03:15:10.542Z,18.65
2023-03-05T03:17:17.163Z,20.30
2023-03-05T03:19:21.971Z,20.08
2023-03-05T03:21:28.306Z,19.85
2023-03-05T03:23:33.630Z,19.92
2023-03-05T03:27:42.991Z,18.85
2023-03-05T03:29:50.508Z,20.05
2023-03-05T03:31:55.243Z,18.88
2023-03-05T03:34:00.109Z,20.83
2023-03-05T03:36:06.130Z,18.58
2023-03-05T03:38:11.965Z,18.10
2023-03-05T03:40:17.228Z,19.35
2023-03-05T03:42:24.579Z,19.20
2023-03-05T03:44:29.333Z,19.13
2023-03-05T03:46:36.836Z,19.63
2023-03-05T03:48:41.658Z,19.85
2023-03-05T03:50:47.100Z,21.35
2023-03-05T03:52:51.896Z,18.70
2023-03-05T03:55:01.781Z,18.15
2023-03-05T03:57:06.609Z,19.48
2023-03-05T03:59:11.976Z,19.58
2023-03-05T04:01:16.756Z,18.60
2023-03-05T04:03:24.185Z,18.65
2023-03-05T04:05:29.037Z,18.80
2023-03-05T04:07:33.920Z,19.23
2023-03-05T04:09:38.696Z,18.05
2023-03-05T04:11:43.579Z,20.65
2023-03-05T04:13:48.356Z,20.17
2023-03-05T04:15:53.193Z,19.50
2023-03-05T04:17:58.097Z,21.65
2023-03-05T04:20:05.870Z,19.73
2023-03-05T04:22:13.120Z,22.50
2023-03-05T04:24:18.034Z,22.25
2023-03-05T04:26:22.788Z,23.83
2023-03-05T04:28:27.731Z,22.30
2023-03-05T04:30:32.644Z,22.65
2023-03-05T04:32:37.707Z,23.52
2023-03-05T04:34:42.516Z,23.27
2023-03-05T04:36:50.470Z,22.75
2023-03-05T04:38:55.368Z,21.10
2023-03-05T04:41:00.189Z,22.52
2023-03-05T04:43:05.269Z,23.88
2023-03-05T04:45:11.421Z,23.10
2023-03-05T04:47:16.270Z,22.80
2023-03-05T04:49:21.109Z,23.38
2023-03-05T04:51:26.101Z,23.35
2023-03-05T04:53:33.561Z,24.13
2023-03-05T04:55:38.339Z,23.13
2023-03-05T04:57:43.466Z,23.80
2023-03-05T04:59:48.285Z,22.17
2023-03-05T05:01:53.181Z,19.90
2023-03-05T05:03:58.000Z,21.52
2023-03-05T05:06:04.649Z,23.15
2023-03-05T05:08:09.474Z,22.52
2023-03-05T05:10:20.982Z,24.40
2023-03-05T05:12:25.752Z,23.33
2023-03-05T05:14:30.602Z,22.77
2023-03-05T05:16:38.470Z,23.98
2023-03-05T05:18:43.796Z,21.98
2023-03-05T05:22:53.139Z,22.17
2023-03-05T05:24:58.061Z,24.83
2023-03-05T05:27:05.513Z,24.73
2023-03-05T05:29:10.418Z,24.55
2023-03-05T05:31:17.479Z,24.27
2023-03-05T05:33:22.523Z,21.25
2023-03-05T05:35:27.417Z,23.90
2023-03-05T05:37:33.008Z,24.63
2023-03-05T05:39:38.639Z,25.50
2023-03-05T05:41:43.512Z,23.33
2023-03-05T05:43:51.102Z,23.70
2023-03-05T05:45:55.961Z,25.02
2023-03-05T05:48:00.828Z,25.55
2023-03-05T05:50:05.688Z,24.02
2023-03-05T05:52:11.371Z,25.02
2023-03-05T05:54:16.611Z,25.35
2023-03-05T05:58:26.012Z,25.88
2023-03-05T06:00:33.459Z,26.88
2023-03-05T06:02:41.462Z,25.40
2023-03-05T06:04:46.315Z,26.13
2023-03-05T06:06:51.251Z,25.48
2023-03-05T06:08:57.066Z,26.08
2023-03-05T06:11:01.821Z,23.80
2023-03-05T06:13:06.696Z,27.05
2023-03-05T06:15:12.546Z,26.80
2023-03-05T06:17:29.853Z,26.90
2023-03-05T06:19:35.833Z,24.58
2023-03-05T06:23:45.722Z,25.55
2023-03-05T06:25:50.794Z,24.10
2023-03-05T06:27:55.551Z,25.75
2023-03-05T06:30:00.380Z,26.10
2023-03-05T06:32:05.255Z,24.42
2023-03-05T06:34:13.654Z,24.38
2023-03-05T06:36:20.515Z,25.08
2023-03-05T06:38:25.607Z,26.25
2023-03-05T06:40:30.437Z,24.55
2023-03-05T06:42:36.613Z,23.20
2023-03-05T06:44:42.063Z,25.65
2023-03-05T06:46:47.043Z,23.73
2023-03-05T06:48:52.890Z,23.88
2023-03-05T06:51:00.566Z,24.02
2023-03-05T06:53:05.543Z,24.02
2023-03-05T06:55:11.474Z,26.02
2023-03-05T06:57:16.431Z,26.27
2023-03-05T06:59:21.790Z,24.90
2023-03-05T07:03:33.872Z,22.45
2023-03-05T07:05:41.551Z,24.73
2023-03-05T07:07:48.996Z,24.30
2023-03-05T07:09:53.879Z,23.00
2023-03-05T07:11:58.729Z,25.00
2023-03-05T07:14:04.398Z,26.10
2023-03-05T07:16:10.954Z,22.73
2023-03-05T07:18:15.967Z,21.65
2023-03-05T07:20:21.182Z,24.30
2023-03-05T07:24:33.547Z,24.52
2023-03-05T07:26:38.957Z,23.33
2023-03-05T07:28:44.557Z,24.27
2023-03-05T07:30:58.790Z,23.20
2023-03-05T07:33:03.914Z,22.38
2023-03-05T07:37:14.303Z,22.15
2023-03-05T07:39:19.589Z,23.08
2023-03-05T07:43:31.577Z,22.05
2023-03-05T07:45:36.583Z,21.08
2023-03-05T07:47:41.475Z,21.33
2023-03-05T07:49:46.373Z,20.23
2023-03-05T07:51:51.164Z,21.40
2023-03-05T07:53:58.492Z,21.17
2023-03-05T07:56:03.346Z,21.00
2023-03-05T07:58:10.773Z,21.58
2023-03-05T08:00:16.839Z,19.98
2023-03-05T08:02:21.946Z,19.02
2023-03-05T08:04:26.874Z,19.40
2023-03-05T08:06:32.022Z,20.67
2023-03-05T08:08:36.853Z,19.27
2023-03-05T08:10:41.733Z,17.75
2023-03-05T08:12:46.530Z,17.50
2023-03-05T08:14:54.216Z,16.48
2023-03-05T08:16:58.979Z,16.65
2023-03-05T08:19:04.406Z,15.70
2023-03-05T08:21:09.511Z,14.95
2023-03-05T08:23:15.504Z,14.70
2023-03-05T08:25:20.657Z,13.98
2023-03-05T08:27:25.491Z,15.27
2023-03-05T08:29:30.735Z,12.13
2023-03-05T08:33:43.450Z,11.85
2023-03-05T08:35:48.497Z,11.50
2023-03-05T08:37:53.432Z,9.95
2023-03-05T08:39:58.342Z,11.95
2023-03-05T08:42:03.309Z,10.27
2023-03-05T08:44:08.078Z,10.65
2023-03-05T08:46:16.871Z,11.55
2023-03-05T08:48:24.472Z,9.20
2023-03-05T08:50:29.336Z,9.73
2023-03-05T08:52:34.216Z,9.07
2023-03-05T08:54:39.845Z,8.68
2023-03-05T08:56:44.691Z,9.15
2023-03-05T08:58:49.807Z,8.88
2023-03-05T09:00:54.777Z,8.20
2023-03-05T09:02:59.976Z,7.50
2023-03-05T09:07:13.045Z,7.60
2023-03-05T09:09:20.785Z,7.40
2023-03-05T09:11:25.634Z,6.90
2023-03-05T09:13:30.469Z,7.35
2023-03-05T09:15:36.845Z,6.25
2023-03-05T09:17:43.228Z,6.85
2023-03-05T09:19:48.045Z,6.68
2023-03-05T09:21:57.111Z,6.50
2023-03-05T09:24:02.051Z,6.25
2023-03-05T09:26:08.756Z,5.90
2023-03-05T09:28:13.560Z,5.97
2023-03-05T09:30:19.323Z,6.00
2023-03-05T09:32:24.421Z,6.10
2023-03-05T09:34:29.244Z,6.63
2023-03-05T09:36:35.510Z,5.93
2023-03-05T09:38:42.926Z,5.13
2023-03-05T09:40:55.449Z,5.30
2023-03-05T09:43:08.646Z,4.82
2023-03-05T09:45:23.203Z,4.90
2023-03-05T09:47:47.285Z,4.97
2023-03-05T09:50:00.424Z,5.28
2023-03-05T09:52:10.570Z,3.28
2023-03-05T09:54:21.924Z,3.50
2023-03-05T09:56:29.758Z,3.47
2023-03-05T09:58:38.686Z,4.90
2023-03-05T10:00:46.778Z,3.92
2023-03-05T10:02:58.512Z,4.43
2023-03-05T10:05:13.166Z,3.22
2023-03-05T10:07:22.980Z,4.00
2023-03-05T10:09:45.603Z,3.25
2023-03-05T10:11:56.606Z,2.83
2023-03-05T10:14:01.558Z,2.67
2023-03-05T10:16:19.786Z,4.15
2023-03-05T10:18:35.876Z,2.90
2023-03-05T10:20:49.520Z,2.88
2023-03-05T10:23:14.026Z,3.00
2023-03-05T10:25:29.282Z,4.40
2023-03-05T10:27:45.964Z,3.60
2023-03-05T10:30:07.598Z,3.10
2023-03-05T10:32:28.943Z,3.55
2023-03-05T10:34:59.861Z,3.00
2023-03-05T10:37:23.927Z,3.90
2023-03-05T10:39:59.253Z,4.78
2023-03-05T10:42:13.941Z,4.80
2023-03-05T10:44:30.849Z,5.70
2023-03-05T10:46:40.688Z,5.68
2023-03-05T10:48:49.936Z,4.57
2023-03-05T10:50:59.994Z,4.68
2023-03-05T10:53:16.793Z,4.35
2023-03-05T10:55:24.468Z,4.55
2023-03-05T10:57:34.587Z,4.85
2023-03-05T10:59:39.371Z,5.00
2023-03-05T11:01:44.747Z,4.18
2023-03-05T11:03:52.823Z,3.10
2023-03-05T11:06:03.435Z,3.72
2023-03-05T11:08:26.975Z,3.83
2023-03-05T11:10:31.789Z,3.63
2023-03-05T11:12:40.795Z,3.58
2023-03-05T11:14:47.787Z,3.38
2023-03-05T11:16:53.487Z,4.03
2023-03-05T11:19:21.289Z,3.30
2023-03-05T11:21:29.315Z,3.08
2023-03-05T11:23:34.180Z,3.75
2023-03-05T11:25:55.716Z,4.10
2023-03-05T11:28:05.470Z,2.45
2023-03-05T11:30:22.470Z,3.03
2023-03-05T11:32:29.557Z,3.03
2023-03-05T11:34:36.093Z,3.10
2023-03-05T11:36:42.927Z,2.50
2023-03-05T11:38:50.054Z,2.47
2023-03-05T11:40:56.450Z,2.08
2023-03-05T11:43:05.003Z,2.28
2023-03-05T11:45:18.582Z,2.30
2023-03-05T11:47:29.349Z,2.30
2023-03-05T11:49:35.356Z,2.50
2023-03-05T11:51:46.129Z,3.38
2023-03-05T11:53:55.650Z,2.35
2023-03-05T11:56:07.301Z,2.17
2023-03-05T11:58:28.399Z,2.25
2023-03-05T12:00:37.932Z,2.08
2023-03-05T12:02:43.050Z,2.53
2023-03-05T12:04:48.117Z,2.80
2023-03-05T12:06:55.228Z,3.10
2023-03-05T12:09:03.843Z,2.63
2023-03-05T12:11:17.819Z,3.20
2023-03-05T12:13:32.172Z,2.03
2023-03-05T12:16:03.948Z,2.90
2023-03-05T12:18:18.685Z,2.40
2023-03-05T12:20:36.545Z,2.38
2023-03-05T12:22:43.432Z,2.30
2023-03-05T12:24:48.422Z,2.10
2023-03-05T12:27:09.955Z,2.67
2023-03-05T12:29:40.343Z,2.10
2023-03-05T12:31:45.640Z,2.70
2023-03-05T12:35:55.013Z,2.80
2023-03-05T12:38:25.852Z,2.80
2023-03-05T12:40:33.319Z,2.38
2023-03-05T12:42:49.922Z,3.33
2023-03-05T12:45:24.520Z,2.65
2023-03-05T12:47:32.050Z,2.40
2023-03-05T12:49:41.359Z,3.20
2023-03-05T12:51:47.031Z,3.55
2023-03-05T12:53:54.313Z,2.97
2023-03-05T12:56:04.168Z,2.60
2023-03-05T12:58:16.117Z,4.63
2023-03-05T13:00:28.536Z,5.25
2023-03-05T13:02:39.910Z,1.92
2023-03-05T13:04:48.669Z,3.00
2023-03-05T13:07:03.442Z,5.03
2023-03-05T13:09:17.438Z,3.67
2023-03-05T13:11:25.391Z,5.03
2023-03-05T13:13:33.908Z,2.50
2023-03-05T13:15:39.167Z,2.90
2023-03-05T13:19:58.702Z,3.20
2023-03-05T13:22:13.603Z,4.05
2023-03-05T13:24:22.429Z,3.22
2023-03-05T13:26:28.313Z,3.35
2023-03-05T13:28:34.685Z,3.70
2023-03-05T13:30:39.527Z,3.80
2023-03-05T13:32:46.926Z,3.60
2023-03-05T13:34:51.721Z,3.03
2023-03-05T13:37:02.429Z,4.55
2023-03-05T13:39:08.339Z,3.38
2023-03-05T13:41:26.113Z,2.72
2023-03-05T13:43:31.039Z,3.70
2023-03-05T13:45:40.125Z,4.00
2023-03-05T13:47:56.004Z,3.70
2023-03-05T13:52:06.596Z,3.60
2023-03-05T13:56:20.751Z,3.88
2023-03-05T13:58:44.413Z,3.33
2023-03-05T14:00:49.306Z,4.47
2023-03-05T14:02:59.688Z,5.28
2023-03-05T14:05:07.058Z,4.60
2023-03-05T14:07:28.795Z,3.78
2023-03-05T14:09:46.111Z,3.08
2023-03-05T14:12:03.582Z,3.47
2023-03-05T14:14:12.621Z,3.85
2023-03-05T14:16:28.094Z,3.38
2023-03-05T14:18:38.809Z,3.67
2023-03-05T14:21:01.738Z,3.80
2023-03-05T14:23:28.327Z,3.70
2023-03-05T14:25:38.657Z,3.45
2023-03-05T14:27:43.494Z,3.97
2023-03-05T14:29:49.563Z,4.13
2023-03-05T14:31:57.352Z,4.10
2023-03-05T14:34:10.136Z,4.05
2023-03-05T14:36:16.347Z,3.95
2023-03-05T14:38:25.077Z,3.83
2023-03-05T14:40:33.741Z,4.45
2023-03-05T14:42:39.654Z,3.88
2023-03-05T14:44:44.749Z,3.95
2023-03-05T14:46:52.154Z,3.58
2023-03-05T14:48:57.172Z,3.78
2023-03-05T14:51:06.056Z,3.97
2023-03-05T14:53:16.259Z,4.13
2023-03-05T14:55:23.373Z,3.65
2023-03-05T14:57:31.068Z,4.50
2023-03-05T14:59:36.080Z,4.78
2023-03-05T15:01:40.882Z,5.43
2023-03-05T15:03:45.853Z,5.63
2023-03-05T15:05:53.867Z,5.57
2023-03-05T15:08:01.374Z,6.95
2023-03-05T15:10:08.799Z,7.82
2023-03-05T15:12:16.227Z,6.07
2023-03-05T15:14:21.043Z,5.75
2023-03-05T15:16:26.204Z,6.80
2023-03-05T15:20:39.922Z,6.28
2023-03-05T15:22:44.764Z,6.38
2023-03-05T15:24:52.137Z,6.07
2023-03-05T15:26:56.957Z,5.07
2023-03-05T15:29:01.748Z,5.38
2023-03-05T15:31:08.728Z,5.75
2023-03-05T15:33:18.351Z,5.68
2023-03-05T15:35:23.939Z,5.05
2023-03-05T15:37:28.886Z,5.03
2023-03-05T15:39:33.768Z,4.88
2023-03-05T15:41:41.526Z,5.95
2023-03-05T15:43:46.287Z,5.88
2023-03-05T15:45:51.047Z,5.20
2023-03-05T15:47:56.858Z,5.40
2023-03-05T15:50:01.636Z,6.32
2023-03-05T15:52:06.480Z,5.57
2023-03-05T15:54:12.162Z,5.35
2023-03-05T15:56:18.405Z,5.50
2023-03-05T15:58:25.784Z,5.68
2023-03-05T16:00:33.799Z,5.68
2023-03-05T16:02:38.596Z,5.90
2023-03-05T16:04:43.514Z,6.22
2023-03-05T16:06:49.859Z,6.93
2023-03-05T16:08:58.949Z,7.22
2023-03-05T16:11:04.110Z,5.40
2023-03-05T16:15:22.671Z,5.75
2023-03-05T16:17:29.472Z,6.10
2023-03-05T16:19:38.516Z,5.47
2023-03-05T16:21:43.738Z,5.68
2023-03-05T16:25:54.962Z,5.50
2023-03-05T16:27:59.866Z,5.13
2023-03-05T16:30:05.004Z,5.50
2023-03-05T16:32:12.461Z,5.43
2023-03-05T16:34:18.830Z,7.18
2023-03-05T16:36:26.987Z,8.55
2023-03-05T16:38:31.828Z,7.28
2023-03-05T16:41:06.057Z,6.80
2023-03-05T16:43:04.470Z,5.65
2023-03-05T16:45:11.047Z,6.22
2023-03-05T16:47:18.904Z,6.20
2023-03-05T16:49:24.372Z,5.90
2023-03-05T16:51:29.695Z,6.88
2023-03-05T16:55:39.950Z,6.75
2023-03-05T16:57:44.811Z,7.60
2023-03-05T16:59:49.627Z,7.53
2023-03-05T17:01:54.715Z,7.38
2023-03-05T17:06:11.857Z,6.97
2023-03-05T17:08:16.638Z,6.93
2023-03-05T17:10:21.470Z,6.93
2023-03-05T17:12:26.397Z,7.38
2023-03-05T17:14:31.699Z,5.90
2023-03-05T17:16:36.588Z,6.68
2023-03-05T17:18:41.689Z,7.18
2023-03-05T17:20:49.150Z,7.57
2023-03-05T17:22:55.248Z,6.68
2023-03-05T17:25:00.042Z,7.53
2023-03-05T17:27:04.901Z,8.13
2023-03-05T17:29:10.406Z,8.63
2023-03-05T17:31:16.185Z,7.72
2023-03-05T17:33:21.101Z,7.55
2023-03-05T17:35:26.250Z,7.35
2023-03-05T17:39:38.238Z,7.35
2023-03-05T17:41:43.154Z,6.78
2023-03-05T17:43:48.294Z,7.85
2023-03-05T17:47:58.789Z,7.72
2023-03-05T17:50:04.468Z,7.55
2023-03-05T17:52:09.264Z,8.43
2023-03-05T17:54:16.832Z,8.02
2023-03-05T17:56:24.154Z,8.02
2023-03-05T17:58:30.004Z,8.93
2023-03-05T18:00:36.472Z,7.53
2023-03-05T18:02:41.335Z,7.38
2023-03-05T18:04:48.058Z,8.68
2023-03-05T18:06:52.837Z,9.05
2023-03-05T18:08:57.610Z,7.63
2023-03-05T18:11:05.009Z,9.13
2023-03-05T18:13:09.944Z,8.35
2023-03-05T18:15:19.180Z,9.07
2023-03-05T18:17:25.664Z,8.48
2023-03-05T18:19:30.485Z,8.05
2023-03-05T18:21:35.497Z,10.15
2023-03-05T18:23:40.333Z,11.50
2023-03-05T18:25:45.396Z,10.95
2023-03-05T18:27:52.765Z,10.77
2023-03-05T18:29:57.706Z,9.88
2023-03-05T18:32:03.247Z,9.65
2023-03-05T18:34:08.016Z,9.23
2023-03-05T18:36:14.624Z,9.80
2023-03-05T18:38:19.379Z,8.75
2023-03-05T18:40:27.676Z,9.70
2023-03-05T18:42:32.791Z,9.23
2023-03-05T18:44:40.542Z,11.20
2023-03-05T18:46:45.325Z,9.27
2023-03-05T18:48:50.563Z,10.10
2023-03-05T18:53:00.544Z,10.25
2023-03-05T18:55:05.353Z,10.45
2023-03-05T18:57:10.150Z,9.20
2023-03-05T18:59:14.905Z,10.98
2023-03-05T19:01:22.902Z,9.68
2023-03-05T19:03:27.766Z,10.15
2023-03-05T19:05:33.368Z,10.98
2023-03-05T19:07:38.304Z,9.27
2023-03-05T19:09:53.237Z,10.15
2023-03-05T19:11:58.090Z,10.85
2023-03-05T19:14:02.877Z,10.02
2023-03-05T19:16:12.770Z,10.75
2023-03-05T19:18:21.288Z,10.85
2023-03-05T19:20:26.187Z,10.18
2023-03-05T19:22:36.295Z,10.25
2023-03-05T19:24:41.404Z,10.73
2023-03-05T19:26:48.034Z,9.38
2023-03-05T19:28:52.847Z,9.68
2023-03-05T19:30:57.732Z,10.23
2023-03-05T19:33:03.784Z,9.50
2023-03-05T19:35:16.676Z,10.45
2023-03-05T19:37:21.488Z,10.73
2023-03-05T19:39:26.375Z,10.95
2023-03-05T19:41:32.791Z,11.90
2023-03-05T19:43:37.794Z,11.57
2023-03-05T19:45:42.811Z,10.95
2023-03-05T19:47:47.589Z,10.95
2023-03-05T19:49:52.827Z,9.52
2023-03-05T19:54:09.645Z,10.75
2023-03-05T19:56:17.688Z,10.10
2023-03-05T19:58:22.504Z,10.77
2023-03-05T20:00:30.319Z,10.07
2023-03-05T20:02:36.277Z,10.55
2023-03-05T20:04:41.047Z,11.27
2023-03-05T20:06:45.869Z,10.38
2023-03-05T20:08:53.459Z,10.30
2023-03-05T20:10:58.243Z,12.07
2023-03-05T20:13:03.259Z,10.75
2023-03-05T20:15:09.202Z,10.77
2023-03-05T20:17:14.071Z,9.90
2023-03-05T20:19:21.977Z,11.77
2023-03-05T20:21:32.051Z,10.63
2023-03-05T20:23:36.865Z,10.77
2023-03-05T20:25:44.273Z,11.15
2023-03-05T20:27:49.064Z,9.77
2023-03-05T20:29:53.863Z,9.32
2023-03-05T20:31:59.261Z,10.32
2023-03-05T20:34:04.129Z,9.80
2023-03-05T20:36:09.796Z,10.55
2023-03-05T20:38:25.313Z,10.82
2023-03-05T20:40:30.210Z,9.13
2023-03-05T20:42:40.214Z,10.30
2023-03-05T20:44:45.349Z,9.65
2023-03-05T20:49:14.910Z,10.20
2023-03-05T20:51:22.830Z,9.95
2023-03-05T20:53:27.762Z,10.02
2023-03-05T20:55:35.399Z,10.98
2023-03-05T20:57:44.184Z,12.93
2023-03-05T20:59:48.996Z,12.98
2023-03-05T21:01:53.796Z,11.55
2023-03-05T21:03:59.910Z,10.43
2023-03-05T21:06:05.636Z,10.93
2023-03-05T21:08:10.519Z,12.13
2023-03-05T21:10:16.563Z,11.95
2023-03-05T21:12:21.353Z,11.05
2023-03-05T21:14:28.806Z,10.93
2023-03-05T21:16:35.381Z,10.85
2023-03-05T21:18:40.349Z,10.85
2023-03-05T21:20:45.205Z,10.45
2023-03-05T21:22:50.531Z,10.27
2023-03-05T21:27:08.203Z,10.30
2023-03-05T21:29:13.091Z,9.98
2023-03-05T21:31:23.161Z,9.80
2023-03-05T21:33:30.038Z,10.05
2023-03-05T21:35:35.981Z,11.07
2023-03-05T21:37:42.677Z,9.30
2023-03-05T21:39:47.524Z,10.57
2023-03-05T21:41:52.907Z,10.38
2023-03-05T21:43:58.257Z,10.07
2023-03-05T21:46:04.425Z,10.57
2023-03-05T21:48:12.487Z,9.77
2023-03-05T21:50:18.737Z,10.55
2023-03-05T21:52:23.502Z,10.32
2023-03-05T21:54:29.137Z,10.50
2023-03-05T21:56:34.008Z,10.40
2023-03-05T21:58:38.892Z,11.15
2023-03-05T22:00:43.840Z,9.98
2023-03-05T22:02:48.713Z,9.35
2023-03-05T22:04:56.233Z,10.23
2023-03-05T22:07:01.127Z,9.45
2023-03-05T22:09:06.216Z,10.25
2023-03-05T22:11:12.546Z,9.63
2023-03-05T22:13:20.101Z,9.43
2023-03-05T22:15:25.443Z,10.90
2023-03-05T22:19:34.800Z,9.98
2023-03-05T22:21:42.249Z,10.23
2023-03-05T22:23:46.980Z,10.68
2023-03-05T22:25:58.852Z,9.73
2023-03-05T22:28:04.145Z,10.50
2023-03-05T22:30:10.746Z,10.05
2023-03-05T22:32:15.699Z,9.93
2023-03-05T22:34:20.483Z,9.93
2023-03-05T22:36:25.849Z,10.93
2023-03-05T22:38:33.238Z,10.80
2023-03-05T22:40:38.524Z,11.32
2023-03-05T22:42:44.292Z,11.70
2023-03-05T22:44:49.213Z,9.73
2023-03-05T22:46:54.071Z,8.77
2023-03-05T22:48:58.912Z,9.82
2023-03-05T22:51:03.829Z,9.45
2023-03-05T22:53:08.634Z,9.65
2023-03-05T22:55:18.509Z,10.13
2023-03-05T22:57:23.360Z,10.63
2023-03-05T22:59:28.253Z,11.23
2023-03-05T23:01:33.074Z,10.02
2023-03-05T23:03:38.070Z,9.82
2023-03-05T23:05:43.410Z,10.82
2023-03-05T23:07:49.396Z,10.55
2023-03-05T23:09:55.238Z,10.25
2023-03-05T23:12:02.628Z,10.23
2023-03-05T23:14:07.460Z,9.32
2023-03-05T23:16:12.532Z,10.68
2023-03-05T23:18:17.540Z,10.18
2023-03-05T23:20:24.672Z,9.80
2023-03-05T23:22:29.521Z,10.50
2023-03-05T23:24:34.524Z,9.00
2023-03-05T23:26:39.280Z,9.70
2023-03-05T23:28:46.846Z,10.15
2023-03-05T23:30:51.714Z,10.30
2023-03-05T23:32:58.933Z,10.18
2023-03-05T23:35:01.143Z,10.60
2023-03-05T23:37:06.712Z,9.82
2023-03-05T23:39:11.460Z,10.15
2023-03-05T23:41:16.273Z,10.10
2023-03-05T23:43:21.621Z,10.05
2023-03-05T23:45:29.784Z,9.50
2023-03-05T23:47:36.702Z,9.95
2023-03-05T23:49:41.668Z,10.75
2023-03-05T23:51:46.524Z,10.38
2023-03-05T23:53:51.299Z,10.23
2023-03-05T23:55:56.971Z,10.27
2023-03-05T23:58:01.873Z,10.05
